createdAt,value
2017-02-13T00:00:45.461Z,0.36
2017-02-13T00:01:45.448Z,0.42
2017-02-13T00:02:45.433Z,0.34
2017-02-13T00:03:45.416Z,0.33
2017-02-13T00:04:45.369Z,0.36
2017-02-13T00:05:45.359Z,0.33
2017-02-13T00:06:45.343Z,0.36
2017-02-13T00:07:45.303Z,0.36
2017-02-13T00:08:45.277Z,0.41
2017-02-13T00:09:45.254Z,0.31
2017-02-13T00:10:45.230Z,0.41
2017-02-13T00:11:45.205Z,0.33
2017-02-13T00:12:45.209Z,0.38
2017-02-13T00:13:45.164Z,0.38
2017-02-13T00:14:45.141Z,0.36
2017-02-13T00:15:45.121Z,0.38
2017-02-13T00:16:45.096Z,0.39
2017-02-13T00:17:45.081Z,0.38
2017-02-13T00:18:45.042Z,0.43
2017-02-13T00:19:44.644Z,0.36
2017-02-13T00:20:45.025Z,0.28
2017-02-13T00:21:44.981Z,0.34
2017-02-13T00:22:44.956Z,0.36
2017-02-13T00:23:44.533Z,0.31
2017-02-13T00:24:44.511Z,0.36
2017-02-13T00:25:45.076Z,0.36
2017-02-13T00:26:44.465Z,0.36
2017-02-13T00:27:44.834Z,0.36
2017-02-13T00:28:44.809Z,0.31
2017-02-13T00:29:44.805Z,0.34
2017-02-13T00:30:44.772Z,0.25
2017-02-13T00:31:44.758Z,0.31
2017-02-13T00:32:44.731Z,0.27
2017-02-13T00:33:44.700Z,0.36
2017-02-13T00:34:44.670Z,0.36
2017-02-13T00:35:44.648Z,0.3
2017-02-13T00:36:44.646Z,0.33
2017-02-13T00:37:44.597Z,0.36
2017-02-13T00:38:44.574Z,0.33
2017-02-13T00:39:44.549Z,0.28
2017-02-13T00:40:44.530Z,0.3
2017-02-13T00:41:44.501Z,0.27
2017-02-13T00:42:44.486Z,0.3
2017-02-13T00:43:44.451Z,0.3
2017-02-13T00:44:44.449Z,0.28
2017-02-13T00:45:44.419Z,0.27
2017-02-13T00:46:44.385Z,0.31
2017-02-13T00:47:44.365Z,0.31
2017-02-13T00:48:44.346Z,0.36
2017-02-13T00:49:44.331Z,0.3
2017-02-13T00:50:43.899Z,0.31
2017-02-13T00:51:44.261Z,0.28
2017-02-13T00:52:43.847Z,0.3
2017-02-13T00:53:44.234Z,0.3
2017-02-13T00:54:44.199Z,0.33
2017-02-13T00:55:44.176Z,0.28
2017-02-13T00:56:44.154Z,0.28
2017-02-13T00:57:43.730Z,0.28
2017-02-13T00:58:44.108Z,0.38
2017-02-13T00:59:44.078Z,0.3
2017-02-13T01:00:43.664Z,0.25
2017-02-13T01:01:44.042Z,0.39
2017-02-13T01:02:43.618Z,0.33
2017-02-13T01:03:43.988Z,0.23
2017-02-13T01:04:43.567Z,0.34
2017-02-13T01:05:43.940Z,0.25
2017-02-13T01:06:43.922Z,0.31
2017-02-13T01:07:43.885Z,0.36
2017-02-13T01:08:43.877Z,0.3
2017-02-13T01:09:43.449Z,0.42
2017-02-13T01:10:43.862Z,0.3
2017-02-13T01:11:43.807Z,0.28
2017-02-13T01:12:43.785Z,0.23
2017-02-13T01:13:43.761Z,0.2
2017-02-13T01:14:43.729Z,0.21
2017-02-13T01:15:43.695Z,0.27
2017-02-13T01:16:43.696Z,0.39
2017-02-13T01:17:43.662Z,0.27
2017-02-13T01:18:43.657Z,0.38
2017-02-13T01:19:43.609Z,0.2
2017-02-13T01:20:43.601Z,0.28
2017-02-13T01:21:43.565Z,0.34
2017-02-13T01:22:43.549Z,0.27
2017-02-13T01:23:43.519Z,0.3
2017-02-13T01:24:43.481Z,0.34
2017-02-13T01:25:43.466Z,0.27
2017-02-13T01:26:43.440Z,0.24
2017-02-13T01:27:43.439Z,0.33
2017-02-13T01:28:43.388Z,0.23
2017-02-13T01:29:43.382Z,0.31
2017-02-13T01:30:43.343Z,0.31
2017-02-13T01:31:43.324Z,0.24
2017-02-13T01:32:43.302Z,0.18
2017-02-13T01:33:43.287Z,0.2
2017-02-13T01:34:42.857Z,0.25
2017-02-13T01:35:43.228Z,0.28
2017-02-13T01:36:43.210Z,0.21
2017-02-13T01:37:43.191Z,0.28
2017-02-13T01:38:43.182Z,0.3
2017-02-13T01:39:43.152Z,0.27
2017-02-13T01:40:43.116Z,0.2
2017-02-13T01:41:43.085Z,0.25
2017-02-13T01:42:43.067Z,0.25
2017-02-13T01:43:43.043Z,0.31
2017-02-13T01:44:43.024Z,0.27
2017-02-13T01:45:42.610Z,0.18
2017-02-13T01:46:42.965Z,0.3
2017-02-13T01:47:42.939Z,0.28
2017-02-13T01:48:42.932Z,0.28
2017-02-13T01:49:42.898Z,0.24
2017-02-13T01:50:42.871Z,0.28
2017-02-13T01:51:42.855Z,0.33
2017-02-13T01:52:42.826Z,0.33
2017-02-13T01:53:42.795Z,0.23
2017-02-13T01:54:42.384Z,0.31
2017-02-13T01:55:42.759Z,0.24
2017-02-13T01:56:42.726Z,0.34
2017-02-13T01:57:42.340Z,0.3
2017-02-13T01:58:42.693Z,0.3
2017-02-13T01:59:42.671Z,0.18
2017-02-13T02:00:42.643Z,0.15
2017-02-13T02:01:42.625Z,0.2
2017-02-13T02:02:42.586Z,0.2
2017-02-13T02:03:42.573Z,0.21
2017-02-13T02:04:42.539Z,0.25
2017-02-13T02:05:42.514Z,0.16
2017-02-13T02:06:42.116Z,0.13
2017-02-13T02:07:42.497Z,0.2
2017-02-13T02:08:42.445Z,0.23
2017-02-13T02:09:42.437Z,0.2
2017-02-13T02:10:42.399Z,0.16
2017-02-13T02:11:42.010Z,0.15
2017-02-13T02:12:42.350Z,0.23
2017-02-13T02:13:42.337Z,0.16
2017-02-13T02:14:42.307Z,0.2
2017-02-13T02:15:42.289Z,0.24
2017-02-13T02:16:41.869Z,0.2
2017-02-13T02:17:42.237Z,0.2
2017-02-13T02:18:42.217Z,0.33
2017-02-13T02:19:42.200Z,0.23
2017-02-13T02:20:42.162Z,0.21
2017-02-13T02:21:42.145Z,0.15
2017-02-13T02:22:41.721Z,0.3
2017-02-13T02:23:42.093Z,0.3
2017-02-13T02:24:42.065Z,0.28
2017-02-13T02:25:42.261Z,0.3
2017-02-13T02:26:42.021Z,0.28
2017-02-13T02:27:42.000Z,0.15
2017-02-13T02:28:41.969Z,0.3
2017-02-13T02:29:41.954Z,0.24
2017-02-13T02:30:41.927Z,0.21
2017-02-13T02:31:41.909Z,0.25
2017-02-13T02:32:41.906Z,0.2
2017-02-13T02:33:41.863Z,0.18
2017-02-13T02:34:41.842Z,0.2
2017-02-13T02:35:41.805Z,0.21
2017-02-13T02:36:41.801Z,0.15
2017-02-13T02:37:41.762Z,0.16
2017-02-13T02:38:41.736Z,0.23
2017-02-13T02:39:41.716Z,0.18
2017-02-13T02:40:41.688Z,0.23
2017-02-13T02:41:41.662Z,0.24
2017-02-13T02:42:41.244Z,0.24
2017-02-13T02:43:41.633Z,0.12
2017-02-13T02:44:41.597Z,0.2
2017-02-13T02:45:41.567Z,0.23
2017-02-13T02:46:41.544Z,0.16
2017-02-13T02:47:41.528Z,0.18
2017-02-13T02:48:41.519Z,0.23
2017-02-13T02:49:41.476Z,0.13
2017-02-13T02:50:41.452Z,0.16
2017-02-13T02:51:41.424Z,0.15
2017-02-13T02:52:41.411Z,0.2
2017-02-13T02:53:41.375Z,0.06
2017-02-13T02:54:41.362Z,0.13
2017-02-13T02:55:41.328Z,0.16
2017-02-13T02:56:41.317Z,0.13
2017-02-13T02:57:41.287Z,0.13
2017-02-13T02:58:41.262Z,0.09
2017-02-13T02:59:41.240Z,0.12
2017-02-13T03:00:41.213Z,0.05
2017-02-13T03:01:41.183Z,0.07
2017-02-13T03:02:41.164Z,0.13
2017-02-13T03:03:41.148Z,0.07
2017-02-13T03:04:41.124Z,0.05
2017-02-13T03:05:41.120Z,0.13
2017-02-13T03:06:41.094Z,0.16
2017-02-13T03:07:41.054Z,0.21
2017-02-13T03:08:41.033Z,0.16
2017-02-13T03:09:41.011Z,0.23
2017-02-13T03:10:40.988Z,0.24
2017-02-13T03:11:40.957Z,0.23
2017-02-13T03:12:40.934Z,0.23
2017-02-13T03:13:40.932Z,0.23
2017-02-13T03:14:40.892Z,0.18
2017-02-13T03:15:40.854Z,0.2
2017-02-13T03:16:40.838Z,0.13
2017-02-13T03:17:40.808Z,0.2
2017-02-13T03:18:40.780Z,0.24
2017-02-13T03:19:40.762Z,0.13
2017-02-13T03:20:40.735Z,0.16
2017-02-13T03:21:40.711Z,0.2
2017-02-13T03:22:40.696Z,0.23
2017-02-13T03:23:40.669Z,0.27
2017-02-13T03:24:40.641Z,0.2
2017-02-13T03:25:40.669Z,0.23
2017-02-13T03:26:40.608Z,0.2
2017-02-13T03:27:40.569Z,0.28
2017-02-13T03:28:40.552Z,0.27
2017-02-13T03:29:40.541Z,0.28
2017-02-13T03:30:40.510Z,0.3
2017-02-13T03:31:40.498Z,0.3
2017-02-13T03:32:40.455Z,0.27
2017-02-13T03:33:40.432Z,0.28
2017-02-13T03:34:40.408Z,0.27
2017-02-13T03:35:40.382Z,0.18
2017-02-13T03:36:39.972Z,0.23
2017-02-13T03:37:40.337Z,0.12
2017-02-13T03:38:40.324Z,0.12
2017-02-13T03:39:40.288Z,0.2
2017-02-13T03:40:40.258Z,0.23
2017-02-13T03:41:39.838Z,0.2
2017-02-13T03:42:40.216Z,0.16
2017-02-13T03:43:40.197Z,0.24
2017-02-13T03:44:40.162Z,0.28
2017-02-13T03:45:40.147Z,0.3
2017-02-13T03:46:39.719Z,0.23
2017-02-13T03:47:40.102Z,0.33
2017-02-13T03:48:40.073Z,0.3
2017-02-13T03:49:40.050Z,0.25
2017-02-13T03:50:40.027Z,0.27
2017-02-13T03:51:40.011Z,0.25
2017-02-13T03:52:39.984Z,0.3
2017-02-13T03:53:39.966Z,0.25
2017-02-13T03:54:39.925Z,0.23
2017-02-13T03:55:39.899Z,0.24
2017-02-13T03:56:39.880Z,0.21
2017-02-13T03:57:39.865Z,0.31
2017-02-13T03:58:39.839Z,0.34
2017-02-13T03:59:39.822Z,0.33
2017-02-13T04:00:39.785Z,0.27
2017-02-13T04:01:39.765Z,0.39
2017-02-13T04:02:39.740Z,0.38
2017-02-13T04:03:39.709Z,0.24
2017-02-13T04:04:39.701Z,0.31
2017-02-13T04:05:39.661Z,0.3
2017-02-13T04:06:39.647Z,0.3
2017-02-13T04:07:39.628Z,0.3
2017-02-13T04:08:39.603Z,0.28
2017-02-13T04:09:39.572Z,0.27
2017-02-13T04:10:39.543Z,0.33
2017-02-13T04:11:39.524Z,0.21
2017-02-13T04:12:39.511Z,0.39
2017-02-13T04:13:39.478Z,0.27
2017-02-13T04:14:38.658Z,0.25
2017-02-13T04:15:39.425Z,0.28
2017-02-13T04:16:39.413Z,0.27
2017-02-13T04:17:39.385Z,0.3
2017-02-13T04:18:39.358Z,0.2
2017-02-13T04:19:38.933Z,0.21
2017-02-13T04:20:39.317Z,0.16
2017-02-13T04:21:39.292Z,0.2
2017-02-13T04:22:39.284Z,0.28
2017-02-13T04:23:39.250Z,0.25
2017-02-13T04:24:39.208Z,0.31
2017-02-13T04:25:38.999Z,0.23
2017-02-13T04:26:38.767Z,0.33
2017-02-13T04:27:39.155Z,0.2
2017-02-13T04:28:39.114Z,0.31
2017-02-13T04:29:39.088Z,0.24
2017-02-13T04:30:39.073Z,0.34
2017-02-13T04:31:39.045Z,0.24
2017-02-13T04:32:38.632Z,0.28
2017-02-13T04:33:38.600Z,0.27
2017-02-13T04:34:38.979Z,0.33
2017-02-13T04:35:38.555Z,0.39
2017-02-13T04:36:38.948Z,0.34
2017-02-13T04:37:38.504Z,0.25
2017-02-13T04:38:38.499Z,0.38
2017-02-13T04:39:38.856Z,0.3
2017-02-13T04:40:38.838Z,0.3
2017-02-13T04:41:38.817Z,0.38
2017-02-13T04:42:38.385Z,0.3
2017-02-13T04:43:38.763Z,0.28
2017-02-13T04:44:38.735Z,0.28
2017-02-13T04:45:38.702Z,0.36
2017-02-13T04:46:38.690Z,0.36
2017-02-13T04:47:38.659Z,0.31
2017-02-13T04:48:38.645Z,0.27
2017-02-13T04:49:38.223Z,0.38
2017-02-13T04:50:38.620Z,0.24
2017-02-13T04:51:38.569Z,0.25
2017-02-13T04:52:38.550Z,0.27
2017-02-13T04:53:38.530Z,0.27
2017-02-13T04:54:38.496Z,0.27
2017-02-13T04:55:38.470Z,0.24
2017-02-13T04:56:38.458Z,0.28
2017-02-13T04:57:38.431Z,0.28
2017-02-13T04:58:38.405Z,0.31
2017-02-13T04:59:38.377Z,0.36
2017-02-13T05:00:38.355Z,0.31
2017-02-13T05:01:38.338Z,0.31
2017-02-13T05:02:37.923Z,0.36
2017-02-13T05:03:38.283Z,0.42
2017-02-13T05:04:38.253Z,0.36
2017-02-13T05:05:38.245Z,0.36
2017-02-13T05:06:38.216Z,0.33
2017-02-13T05:07:38.187Z,0.36
2017-02-13T05:08:38.166Z,0.39
2017-02-13T05:09:38.143Z,0.43
2017-02-13T05:10:38.122Z,0.46
2017-02-13T05:11:38.115Z,0.42
2017-02-13T05:12:38.059Z,0.48
2017-02-13T05:13:38.063Z,0.49
2017-02-13T05:14:38.016Z,0.49
2017-02-13T05:15:38.001Z,0.48
2017-02-13T05:16:37.978Z,0.46
2017-02-13T05:17:37.944Z,0.43
2017-02-13T05:18:37.925Z,0.48
2017-02-13T05:19:37.896Z,0.39
2017-02-13T05:20:37.868Z,0.49
2017-02-13T05:21:37.853Z,0.51
2017-02-13T05:22:37.839Z,0.43
2017-02-13T05:23:37.824Z,0.51
2017-02-13T05:24:37.780Z,0.42
2017-02-13T05:25:37.763Z,0.38
2017-02-13T05:26:37.336Z,0.41
2017-02-13T05:27:37.710Z,0.38
2017-02-13T05:28:37.291Z,0.39
2017-02-13T05:29:37.657Z,0.45
2017-02-13T05:30:37.634Z,0.51
2017-02-13T05:31:37.617Z,0.45
2017-02-13T05:32:37.591Z,0.51
2017-02-13T05:33:37.565Z,0.48
2017-02-13T05:34:37.545Z,0.51
2017-02-13T05:35:37.519Z,0.48
2017-02-13T05:36:36.703Z,0.49
2017-02-13T05:37:37.466Z,0.6
2017-02-13T05:38:37.443Z,0.52
2017-02-13T05:39:37.429Z,0.58
2017-02-13T05:40:37.402Z,0.57
2017-02-13T05:41:37.370Z,0.53
2017-02-13T05:42:37.361Z,0.61
2017-02-13T05:43:37.335Z,0.52
2017-02-13T05:44:37.306Z,0.53
2017-02-13T05:45:37.285Z,0.53
2017-02-13T05:46:37.259Z,0.49
2017-02-13T05:47:37.229Z,0.53
2017-02-13T05:48:37.231Z,0.52
2017-02-13T05:49:37.180Z,0.53
2017-02-13T05:50:36.790Z,0.61
2017-02-13T05:51:37.143Z,0.52
2017-02-13T05:52:37.115Z,0.58
2017-02-13T05:53:37.083Z,0.6
2017-02-13T05:54:37.065Z,0.58
2017-02-13T05:55:37.041Z,0.64
2017-02-13T05:56:37.016Z,0.6
2017-02-13T05:57:37.024Z,0.57
2017-02-13T05:58:37.005Z,0.52
2017-02-13T05:59:36.942Z,0.53
2017-02-13T06:00:36.918Z,0.51
2017-02-13T06:01:36.898Z,0.65
2017-02-13T06:02:36.891Z,0.64
2017-02-13T06:03:36.861Z,0.6
2017-02-13T06:04:36.840Z,0.62
2017-02-13T06:05:36.814Z,0.67
2017-02-13T06:06:36.792Z,0.61
2017-02-13T06:07:36.379Z,0.6
2017-02-13T06:08:36.742Z,0.6
2017-02-13T06:09:36.701Z,0.62
2017-02-13T06:10:36.680Z,0.62
2017-02-13T06:11:36.667Z,0.65
2017-02-13T06:12:36.259Z,0.68
2017-02-13T06:13:36.624Z,0.58
2017-02-13T06:14:36.588Z,0.6
2017-02-13T06:15:36.168Z,0.64
2017-02-13T06:16:36.575Z,0.65
2017-02-13T06:17:36.544Z,0.62
2017-02-13T06:18:36.505Z,0.62
2017-02-13T06:19:36.500Z,0.52
2017-02-13T06:20:36.452Z,0.6
2017-02-13T06:21:36.458Z,0.61
2017-02-13T06:22:36.394Z,0.6
2017-02-13T06:23:36.371Z,0.6
2017-02-13T06:24:36.389Z,0.58
2017-02-13T06:25:36.542Z,0.57
2017-02-13T06:26:37.158Z,0.64
2017-02-13T06:27:36.301Z,0.62
2017-02-13T06:28:36.268Z,0.67
2017-02-13T06:29:36.260Z,0.68
2017-02-13T06:30:36.216Z,0.7
2017-02-13T06:31:36.190Z,0.65
2017-02-13T06:32:36.181Z,0.65
2017-02-13T06:33:36.177Z,0.61
2017-02-13T06:34:35.317Z,0.67
2017-02-13T06:35:36.113Z,0.7
2017-02-13T06:36:36.072Z,0.67
2017-02-13T06:37:36.049Z,0.71
2017-02-13T06:38:36.027Z,0.72
2017-02-13T06:39:35.997Z,0.65
2017-02-13T06:40:35.976Z,0.68
2017-02-13T06:41:35.944Z,0.67
2017-02-13T06:42:35.920Z,0.62
2017-02-13T06:43:35.908Z,0.62
2017-02-13T06:44:35.882Z,0.62
2017-02-13T06:45:35.842Z,0.62
2017-02-13T06:46:35.422Z,0.68
2017-02-13T06:47:35.809Z,0.62
2017-02-13T06:48:35.773Z,0.62
2017-02-13T06:49:35.355Z,0.61
2017-02-13T06:50:35.739Z,0.62
2017-02-13T06:51:35.703Z,0.65
2017-02-13T06:52:35.676Z,0.6
2017-02-13T06:53:35.263Z,0.58
2017-02-13T06:54:35.240Z,0.64
2017-02-13T06:55:35.611Z,0.58
2017-02-13T06:56:35.585Z,0.62
2017-02-13T06:57:35.178Z,0.6
2017-02-13T06:58:35.546Z,0.64
2017-02-13T06:59:35.527Z,0.7
2017-02-13T07:00:35.509Z,0.64
2017-02-13T07:01:35.491Z,0.71
2017-02-13T07:02:35.455Z,0.68
2017-02-13T07:03:35.415Z,0.72
2017-02-13T07:04:35.398Z,0.72
2017-02-13T07:05:35.379Z,0.75
2017-02-13T07:06:35.351Z,0.7
2017-02-13T07:07:35.318Z,0.72
2017-02-13T07:08:35.310Z,0.75
2017-02-13T07:09:35.289Z,0.78
2017-02-13T07:10:35.252Z,0.72
2017-02-13T07:11:35.247Z,0.68
2017-02-13T07:12:35.209Z,0.67
2017-02-13T07:13:35.192Z,0.75
2017-02-13T07:14:35.163Z,0.88
2017-02-13T07:15:35.138Z,0.7
2017-02-13T07:16:35.125Z,0.78
2017-02-13T07:17:35.089Z,0.82
2017-02-13T07:18:35.080Z,0.79
2017-02-13T07:19:35.039Z,0.82
2017-02-13T07:20:35.016Z,0.83
2017-02-13T07:21:35.005Z,0.82
2017-02-13T07:22:34.578Z,0.85
2017-02-13T07:23:34.945Z,0.85
2017-02-13T07:24:34.932Z,0.85
2017-02-13T07:25:34.905Z,0.85
2017-02-13T07:26:34.877Z,0.9
2017-02-13T07:27:34.858Z,0.96
2017-02-13T07:28:34.844Z,0.97
2017-02-13T07:29:34.815Z,1.06
2017-02-13T07:30:34.788Z,1.06
2017-02-13T07:31:34.767Z,0.98
2017-02-13T07:32:34.734Z,1.1
2017-02-13T07:33:34.710Z,1.04
2017-02-13T07:34:34.697Z,1.1
2017-02-13T07:35:34.665Z,1
2017-02-13T07:36:34.645Z,1.12
2017-02-13T07:37:34.624Z,1.03
2017-02-13T07:38:34.600Z,1.1
2017-02-13T07:39:34.587Z,1.15
2017-02-13T07:40:34.558Z,1.12
2017-02-13T07:41:34.528Z,1.15
2017-02-13T07:42:34.504Z,1.22
2017-02-13T07:43:34.079Z,1.19
2017-02-13T07:44:34.459Z,1.16
2017-02-13T07:45:48.760Z,1.19
2017-02-13T07:46:34.011Z,1.14
2017-02-13T07:47:34.395Z,1.32
2017-02-13T07:48:34.376Z,1.29
2017-02-13T07:49:34.356Z,1.4
2017-02-13T07:50:34.332Z,1.34
2017-02-13T07:51:34.335Z,1.37
2017-02-13T07:52:34.286Z,1.46
2017-02-13T07:53:33.858Z,1.42
2017-02-13T07:54:34.247Z,1.46
2017-02-13T07:55:34.208Z,1.42
2017-02-13T07:56:34.191Z,1.47
2017-02-13T07:57:34.162Z,1.54
2017-02-13T07:58:33.756Z,1.52
2017-02-13T07:59:33.719Z,1.58
2017-02-13T08:00:33.688Z,1.57
2017-02-13T08:01:33.676Z,1.57
2017-02-13T08:02:33.649Z,1.65
2017-02-13T08:03:34.021Z,1.71
2017-02-13T08:04:33.603Z,1.75
2017-02-13T08:05:33.976Z,1.65
2017-02-13T08:06:33.949Z,1.79
2017-02-13T08:07:33.529Z,1.79
2017-02-13T08:08:33.916Z,1.78
2017-02-13T08:09:33.886Z,2.01
2017-02-13T08:10:33.862Z,2.16
2017-02-13T08:11:33.443Z,2.26
2017-02-13T08:12:33.827Z,2.26
2017-02-13T08:13:33.803Z,2.16
2017-02-13T08:14:33.779Z,2.15
2017-02-13T08:15:33.761Z,2.2
2017-02-13T08:16:33.735Z,2.2
2017-02-13T08:17:33.709Z,2.19
2017-02-13T08:18:33.684Z,2.15
2017-02-13T08:19:33.662Z,2.17
2017-02-13T08:20:33.663Z,2.19
2017-02-13T08:21:33.623Z,2.3
2017-02-13T08:22:33.600Z,2.33
2017-02-13T08:23:33.569Z,2.35
2017-02-13T08:24:33.546Z,2.34
2017-02-13T08:25:33.730Z,2.48
2017-02-13T08:26:33.508Z,2.45
2017-02-13T08:27:33.112Z,2.44
2017-02-13T08:28:33.488Z,2.45
2017-02-13T08:29:33.436Z,2.45
2017-02-13T08:30:33.418Z,2.45
2017-02-13T08:31:33.030Z,2.56
2017-02-13T08:32:33.382Z,2.56
2017-02-13T08:33:33.358Z,2.59
2017-02-13T08:34:33.347Z,2.63
2017-02-13T08:35:33.308Z,2.64
2017-02-13T08:36:33.285Z,2.67
2017-02-13T08:37:33.282Z,2.71
2017-02-13T08:38:33.255Z,2.67
2017-02-13T08:39:33.287Z,2.69
2017-02-13T08:40:33.213Z,2.81
2017-02-13T08:41:33.193Z,2.88
2017-02-13T08:42:33.157Z,3.13
2017-02-13T08:43:33.143Z,3.16
2017-02-13T08:44:33.152Z,3.27
2017-02-13T08:45:33.100Z,3.61
2017-02-13T08:46:33.068Z,4.07
2017-02-13T08:47:33.062Z,4.59
2017-02-13T08:48:33.035Z,4.94
2017-02-13T08:49:33.010Z,4.91
2017-02-13T08:50:32.602Z,5.23
2017-02-13T08:51:32.964Z,5.73
2017-02-13T08:52:32.950Z,6.38
2017-02-13T08:53:32.929Z,6.91
2017-02-13T08:54:32.930Z,6.9
2017-02-13T08:55:32.490Z,6.71
2017-02-13T08:56:32.469Z,6.56
2017-02-13T08:57:32.867Z,6.5
2017-02-13T08:58:32.825Z,6.1
2017-02-13T08:59:32.816Z,6.06
2017-02-13T09:00:32.806Z,6
2017-02-13T09:01:32.792Z,6.16
2017-02-13T09:02:32.755Z,6.59
2017-02-13T09:03:32.734Z,7.09
2017-02-13T09:04:32.725Z,7.75
2017-02-13T09:05:32.698Z,8.15
2017-02-13T09:06:32.285Z,8.58
2017-02-13T09:07:32.658Z,9.02
2017-02-13T09:08:32.634Z,9.48
2017-02-13T09:09:32.622Z,9.85
2017-02-13T09:10:32.608Z,10.21
2017-02-13T09:11:32.601Z,10.28
2017-02-13T09:12:32.572Z,10.39
2017-02-13T09:13:32.568Z,10.39
2017-02-13T09:14:32.551Z,9.93
2017-02-13T09:15:32.545Z,9.63
2017-02-13T09:16:32.523Z,9.73
2017-02-13T09:17:32.509Z,10.01
2017-02-13T09:18:32.485Z,10.01
2017-02-13T09:19:32.467Z,9.63
2017-02-13T09:20:32.460Z,9.23
2017-02-13T09:21:32.427Z,9.21
2017-02-13T09:22:32.428Z,9.28
2017-02-13T09:23:32.404Z,9.46
2017-02-13T09:24:32.383Z,9.58
2017-02-13T09:25:32.369Z,9.75
2017-02-13T09:26:32.353Z,9.43
2017-02-13T09:27:32.354Z,9.32
2017-02-13T09:28:32.322Z,9.15
2017-02-13T09:29:32.309Z,9.16
2017-02-13T09:30:32.297Z,9.18
2017-02-13T09:31:32.283Z,9.15
2017-02-13T09:32:32.267Z,9.23
2017-02-13T09:33:32.238Z,9.13
2017-02-13T09:34:32.253Z,9.24
2017-02-13T09:35:32.219Z,9.34
2017-02-13T09:36:32.217Z,9.53
2017-02-13T09:37:32.186Z,9.73
2017-02-13T09:38:32.171Z,9.75
2017-02-13T09:39:32.167Z,9.58
2017-02-13T09:40:32.141Z,9.45
2017-02-13T09:41:32.129Z,9.21
2017-02-13T09:42:32.116Z,8.9
2017-02-13T09:43:31.701Z,8.54
2017-02-13T09:44:32.094Z,8.32
2017-02-13T09:45:32.077Z,8.18
2017-02-13T09:46:32.058Z,8.11
2017-02-13T09:47:31.643Z,8.14
2017-02-13T09:48:31.642Z,8.37
2017-02-13T09:49:32.045Z,8.68
2017-02-13T09:50:31.993Z,8.97
2017-02-13T09:51:31.999Z,9.38
2017-02-13T09:52:31.979Z,9.61
2017-02-13T09:53:31.958Z,9.28
2017-02-13T09:54:31.963Z,8.9
2017-02-13T09:55:31.931Z,8.84
2017-02-13T09:56:31.515Z,8.88
2017-02-13T09:57:31.898Z,8.75
2017-02-13T09:58:31.104Z,8.55
2017-02-13T09:59:31.868Z,8.66
2017-02-13T10:00:31.864Z,8.55
2017-02-13T10:01:31.838Z,8.58
2017-02-13T10:02:31.850Z,8.79
2017-02-13T10:03:31.803Z,8.66
2017-02-13T10:04:31.790Z,8.44
2017-02-13T10:05:31.775Z,8.26
2017-02-13T10:06:31.767Z,7.99
2017-02-13T10:07:31.758Z,7.84
2017-02-13T10:08:31.739Z,7.74
2017-02-13T10:09:31.731Z,7.74
2017-02-13T10:10:31.712Z,7.66
2017-02-13T10:11:31.702Z,7.58
2017-02-13T10:12:31.683Z,7.55
2017-02-13T10:13:31.659Z,7.56
2017-02-13T10:14:31.682Z,7.63
2017-02-13T10:15:31.647Z,7.63
2017-02-13T10:16:31.622Z,7.81
2017-02-13T10:17:31.607Z,7.87
2017-02-13T10:18:31.589Z,8.02
2017-02-13T10:19:31.572Z,8.14
2017-02-13T10:20:31.578Z,8.03
2017-02-13T10:21:31.168Z,8.15
2017-02-13T10:22:31.551Z,8.3
2017-02-13T10:23:31.135Z,8.63
2017-02-13T10:24:31.512Z,8.93
2017-02-13T10:25:31.701Z,9.66
2017-02-13T10:26:31.091Z,9.96
2017-02-13T10:27:31.482Z,10.25
2017-02-13T10:28:31.061Z,10.52
2017-02-13T10:29:31.440Z,10.73
2017-02-13T10:30:31.427Z,10.94
2017-02-13T10:31:31.416Z,10.96
2017-02-13T10:32:31.411Z,11.01
2017-02-13T10:33:31.405Z,11.21
2017-02-13T10:34:31.377Z,11.56
2017-02-13T10:35:31.368Z,12.01
2017-02-13T10:36:31.358Z,12.29
2017-02-13T10:37:31.351Z,12.26
2017-02-13T10:38:30.535Z,12.26
2017-02-13T10:39:31.323Z,12.24
2017-02-13T10:40:31.307Z,12.31
2017-02-13T10:41:31.300Z,12.41
2017-02-13T10:42:31.300Z,12.56
2017-02-13T10:43:31.270Z,12.52
2017-02-13T10:44:31.270Z,12.45
2017-02-13T10:45:31.294Z,12.48
2017-02-13T10:46:31.232Z,12.38
2017-02-13T10:47:31.230Z,12.34
2017-02-13T10:48:31.234Z,12.24
2017-02-13T10:49:31.199Z,12.29
2017-02-13T10:50:31.206Z,12.19
2017-02-13T10:51:31.226Z,11.89
2017-02-13T10:52:31.171Z,11.44
2017-02-13T10:53:31.161Z,11.06
2017-02-13T10:54:31.143Z,10.99
2017-02-13T10:55:31.138Z,10.7
2017-02-13T10:56:31.120Z,10.53
2017-02-13T10:57:31.127Z,10.43
2017-02-13T10:58:31.119Z,10.56
2017-02-13T10:59:31.105Z,10.58
2017-02-13T11:00:30.679Z,10.71
2017-02-13T11:01:31.069Z,10.8
2017-02-13T11:02:31.068Z,11.03
2017-02-13T11:03:31.039Z,11.06
2017-02-13T11:04:31.037Z,11.06
2017-02-13T11:05:31.014Z,11.03
2017-02-13T11:06:31.006Z,11.01
2017-02-13T11:07:30.630Z,11.06
2017-02-13T11:08:30.996Z,11.02
2017-02-13T11:09:30.975Z,11.19
2017-02-13T11:10:30.978Z,11.34
2017-02-13T11:11:30.949Z,11.34
2017-02-13T11:12:30.937Z,11.39
2017-02-13T11:13:30.940Z,11.44
2017-02-13T11:14:30.937Z,11.54
2017-02-13T11:15:30.917Z,11.68
2017-02-13T11:16:30.914Z,12.09
2017-02-13T11:17:30.891Z,12.16
2017-02-13T11:18:30.881Z,12.29
2017-02-13T11:19:30.484Z,12.19
2017-02-13T11:20:30.897Z,12.37
2017-02-13T11:21:30.859Z,12.46
2017-02-13T11:22:30.462Z,12.31
2017-02-13T11:23:30.467Z,12.29
2017-02-13T11:24:30.828Z,12.42
2017-02-13T11:25:30.823Z,12.39
2017-02-13T11:26:30.853Z,12.48
2017-02-13T11:27:30.809Z,12.7
2017-02-13T11:28:30.796Z,12.96
2017-02-13T11:29:30.833Z,13.18
2017-02-13T11:30:30.788Z,13.33
2017-02-13T11:31:30.809Z,13.54
2017-02-13T11:32:30.765Z,13.25
2017-02-13T11:33:30.748Z,13.15
2017-02-13T11:34:30.761Z,13.06
2017-02-13T11:35:30.733Z,13
2017-02-13T11:36:30.727Z,12.97
2017-02-13T11:37:30.730Z,13.06
2017-02-13T11:38:30.709Z,13.22
2017-02-13T11:39:30.705Z,13.22
2017-02-13T11:40:30.693Z,13.36
2017-02-13T11:41:30.298Z,13.3
2017-02-13T11:42:30.726Z,13.3
2017-02-13T11:43:30.276Z,13.38
2017-02-13T11:44:30.267Z,13.46
2017-02-13T11:45:30.668Z,13.55
2017-02-13T11:46:30.269Z,13.71
2017-02-13T11:47:30.264Z,13.76
2017-02-13T11:48:30.650Z,13.91
2017-02-13T11:49:30.631Z,13.95
2017-02-13T11:50:30.618Z,14.01
2017-02-13T11:51:30.611Z,14.19
2017-02-13T11:52:30.619Z,14.35
2017-02-13T11:53:30.210Z,14.29
2017-02-13T11:54:30.592Z,14.43
2017-02-13T11:55:30.588Z,14.39
2017-02-13T11:56:30.582Z,14.21
2017-02-13T11:57:30.577Z,14.28
2017-02-13T11:58:30.212Z,14.13
2017-02-13T11:59:30.580Z,14.1
2017-02-13T12:00:30.574Z,14.1
2017-02-13T12:01:30.573Z,14.17
2017-02-13T12:02:30.567Z,14.07
2017-02-13T12:03:30.161Z,14.16
2017-02-13T12:04:30.549Z,13.87
2017-02-13T12:05:30.554Z,13.77
2017-02-13T12:06:30.135Z,13.52
2017-02-13T12:07:30.150Z,13.4
2017-02-13T12:08:30.516Z,13.37
2017-02-13T12:09:30.521Z,13.51
2017-02-13T12:10:30.526Z,13.7
2017-02-13T12:11:30.521Z,13.87
2017-02-13T12:12:30.512Z,14.09
2017-02-13T12:13:30.507Z,14.19
2017-02-13T12:14:30.504Z,14.34
2017-02-13T12:15:30.497Z,14.6
2017-02-13T12:16:30.502Z,14.65
2017-02-13T12:17:30.497Z,14.75
2017-02-13T12:18:30.474Z,14.75
2017-02-13T12:19:30.474Z,15.05
2017-02-13T12:20:30.473Z,15.24
2017-02-13T12:21:30.464Z,15.23
2017-02-13T12:22:30.469Z,15.27
2017-02-13T12:23:30.466Z,15.35
2017-02-13T12:24:30.459Z,15.59
2017-02-13T12:25:31.067Z,15.68
2017-02-13T12:26:30.443Z,15.68
2017-02-13T12:27:30.456Z,15.89
2017-02-13T12:28:30.443Z,15.93
2017-02-13T12:29:30.431Z,15.99
2017-02-13T12:30:30.422Z,15.97
2017-02-13T12:31:30.425Z,15.81
2017-02-13T12:32:30.418Z,15.41
2017-02-13T12:33:30.440Z,15.31
2017-02-13T12:34:30.409Z,15.38
2017-02-13T12:35:30.418Z,15.48
2017-02-13T12:36:30.032Z,15.45
2017-02-13T12:37:30.415Z,15.43
2017-02-13T12:38:30.012Z,15.56
2017-02-13T12:39:30.405Z,15.67
2017-02-13T12:40:30.396Z,15.64
2017-02-13T12:41:29.991Z,15.78
2017-02-13T12:42:30.394Z,15.6
2017-02-13T12:43:30.379Z,15.46
2017-02-13T12:45:36.523Z,15.7
2017-02-13T12:45:47.854Z,15.85
2017-02-13T12:46:47.845Z,15.94
2017-02-13T12:47:47.842Z,15.94
2017-02-13T12:48:47.848Z,16
2017-02-13T12:49:47.468Z,16.06
2017-02-13T12:50:47.839Z,16.14
2017-02-13T12:51:47.829Z,16.3
2017-02-13T12:52:47.824Z,16.5
2017-02-13T12:53:47.826Z,16.56
2017-02-13T12:54:47.820Z,16.81
2017-02-13T12:55:47.811Z,16.73
2017-02-13T12:56:47.811Z,16.96
2017-02-13T12:57:47.824Z,17.08
2017-02-13T12:58:47.810Z,17.25
2017-02-13T12:59:47.822Z,17.33
2017-02-13T13:00:47.802Z,17.32
2017-02-13T13:01:47.789Z,17.18
2017-02-13T13:02:47.790Z,17.06
2017-02-13T13:03:47.803Z,17.07
2017-02-13T13:04:47.396Z,17.1
2017-02-13T13:05:47.392Z,17.03
2017-02-13T13:06:47.785Z,16.77
2017-02-13T13:07:47.382Z,16.9
2017-02-13T13:08:47.782Z,17.04
2017-02-13T13:09:47.784Z,16.81
2017-02-13T13:10:47.768Z,16.45
2017-02-13T13:11:47.780Z,16.49
2017-02-13T13:12:47.770Z,16.6
2017-02-13T13:13:47.774Z,16.86
2017-02-13T13:14:47.362Z,16.89
2017-02-13T13:15:47.769Z,16.89
2017-02-13T13:16:47.754Z,16.78